Time;durP1;ratioP1;P1;durP2;ratioP2;P2;SDS_P1;SDS_P2;PMS_P1;PMS_P2;Temp;Humidity;BMP_temperature;BMP_pressure;BME280_temperature;BME280_humidity;BME280_pressure;Samples;Min_cycle;Max_cycle;Signal;HPM_P1;HPM_P2
2024/04/12 00:01:48;;;;;;;15.60;7.20;;;;;;;11.46;56.64;101649.28;1823824;78;25368;-61
2024/04/12 00:04:20;;;;;;;13.45;6.50;;;;;;;11.43;56.63;101651.22;1826034;78;27518;-61
2024/04/12 00:06:59;;;;;;;11.00;6.50;;;;;;;11.42;56.57;101649.03;1829828;77;25551;-62
2024/04/12 00:09:23;;;;;;;16.67;8.03;;;;;;;11.41;56.54;101647.44;1828997;77;25432;-61
2024/04/12 00:11:54;;;;;;;11.22;7.00;;;;;;;11.40;56.68;101645.25;1829872;78;25560;-61
2024/04/12 00:14:24;;;;;;;13.18;6.50;;;;;;;11.40;56.78;101645.80;1829840;78;25755;-61
2024/04/12 00:16:52;;;;;;;12.10;6.92;;;;;;;11.39;56.68;101644.17;1829927;77;27438;-60
2024/04/12 00:19:23;;;;;;;16.37;6.90;;;;;;;11.38;56.60;101649.34;1829742;78;25512;-61
2024/04/12 00:21:55;;;;;;;8.25;6.10;;;;;;;11.37;56.81;101646.36;1829273;78;25427;-61
2024/04/12 00:24:27;;;;;;;9.13;6.70;;;;;;;11.36;56.62;101646.12;1829303;78;25568;-61
2024/04/12 00:26:58;;;;;;;10.50;6.70;;;;;;;11.33;56.66;101644.77;1814332;78;25441;-61
2024/04/12 00:29:31;;;;;;;12.60;6.90;;;;;;;11.30;56.82;101644.52;1829871;78;27476;-61
2024/04/12 00:32:13;;;;;;;9.63;6.25;;;;;;;11.26;56.79;101647.53;1829790;78;26192;-61
2024/04/12 00:34:38;;;;;;;12.90;6.85;;;;;;;11.22;56.78;101645.94;1828744;77;25571;-61
2024/04/12 00:37:15;;;;;;;13.58;7.17;;;;;;;11.18;57.28;101639.44;1829807;77;25725;-60
2024/04/12 00:39:40;;;;;;;14.00;7.10;;;;;;;11.13;57.31;101645.69;1828722;77;25526;-60
2024/04/12 00:42:10;;;;;;;11.80;6.30;;;;;;;11.11;57.53;101643.02;1829786;78;27578;-61
2024/04/12 00:44:42;;;;;;;10.68;5.95;;;;;;;11.07;57.71;101646.83;1829702;77;25421;-60
2024/04/12 00:47:15;;;;;;;48.80;44.48;;;;;;;11.06;57.85;101645.75;1829824;78;25374;-61
2024/04/12 00:49:51;;;;;;;9.55;5.92;;;;;;;11.05;57.95;101639.53;1829806;77;25377;-60
2024/04/12 00:52:27;;;;;;;12.73;6.92;;;;;;;11.06;57.98;101638.98;1829918;77;25377;-60
2024/04/12 00:55:06;;;;;;;11.45;6.03;;;;;;;11.08;58.16;101640.86;1829324;77;29617;-60
2024/04/12 00:57:39;;;;;;;9.98;6.30;;;;;;;11.09;58.49;101635.72;1829806;77;25742;-60
2024/04/12 01:00:19;;;;;;;12.55;6.30;;;;;;;11.13;58.91;101637.56;1829959;78;25547;-62
2024/04/12 01:02:48;;;;;;;11.73;6.62;;;;;;;11.15;59.17;101635.94;1828914;77;25553;-61
2024/04/12 01:05:18;;;;;;;10.72;6.12;;;;;;;11.19;59.31;101634.30;1829628;77;25511;-62
2024/04/12 01:07:55;;;;;;;13.88;6.45;;;;;;;11.23;59.14;101634.55;1829831;78;27962;-60
2024/04/12 01:10:25;;;;;;;11.28;6.15;;;;;;;11.26;59.54;101633.44;1828912;77;25744;-61
2024/04/12 01:13:02;;;;;;;12.35;5.62;;;;;;;11.32;59.36;101634.20;1829815;77;25444;-60
2024/04/12 01:15:37;;;;;;;12.85;6.22;;;;;;;11.35;59.17;101627.67;1829698;77;25515;-61
2024/04/12 01:18:14;;;;;;;12.43;6.45;;;;;;;11.42;59.48;101636.84;1829882;78;25375;-60
2024/04/12 01:20:43;;;;;;;8.88;6.62;;;;;;;11.50;60.05;101639.52;1829244;77;27615;-60
2024/04/12 01:23:10;;;;;;;9.85;6.22;;;;;;;11.57;59.95;101635.94;1829730;77;26132;-61
2024/04/12 01:25:37;;;;;;;10.70;5.78;;;;;;;11.65;60.17;101636.69;1829751;78;25369;-61
2024/04/12 01:28:09;;;;;;;8.65;5.28;;;;;;;11.72;60.18;101635.01;1829738;78;25562;-60
2024/04/12 01:30:34;;;;;;;8.13;5.55;;;;;;;11.79;60.21;101636.84;1829684;77;25601;-61
2024/04/12 01:33:08;;;;;;;9.25;5.53;;;;;;;11.86;60.00;101635.16;1829814;78;27475;-61
2024/04/12 01:35:36;;;;;;;9.08;4.95;;;;;;;11.93;60.08;101638.38;1829684;77;25379;-61
2024/04/12 01:38:17;;;;;;;8.98;5.33;;;;;;;12.00;60.04;101642.91;1829945;78;25380;-61
2024/04/12 01:40:56;;;;;;;10.03;5.70;;;;;;;12.08;60.06;101642.86;1829801;77;25372;-60
2024/04/12 01:43:18;;;;;;;10.93;5.90;;;;;;;12.14;59.68;101637.66;1828508;77;25604;-60
2024/04/12 01:45:48;;;;;;;9.40;5.60;;;;;;;12.20;59.29;101645.18;1829886;78;27484;-60
2024/04/12 01:48:14;;;;;;;10.98;5.97;;;;;;;12.26;59.29;101644.84;1829806;78;25527;-59
2024/04/12 01:50:41;;;;;;;9.28;5.45;;;;;;;12.32;59.52;101641.52;1829578;77;25588;-60
2024/04/12 01:53:10;;;;;;;8.78;5.20;;;;;;;12.37;59.24;101644.18;1829720;77;25544;-59
2024/04/12 01:55:41;;;;;;;9.75;5.60;;;;;;;12.42;58.98;101640.61;1829874;78;25423;-59
2024/04/12 01:58:07;;;;;;;13.72;5.20;;;;;;;12.45;58.47;101642.75;1829877;77;28294;-59
2024/04/12 02:00:33;;;;;;;11.30;5.30;;;;;;;12.51;58.33;101640.22;1829651;78;25424;-59
2024/04/12 02:02:59;;;;;;;9.45;5.08;;;;;;;12.57;58.21;101640.44;1829313;78;25577;-61
2024/04/12 02:05:32;;;;;;;12.18;4.40;;;;;;;12.61;58.10;101638.75;1825347;78;25491;-60
2024/04/12 02:08:07;;;;;;;9.63;4.75;;;;;;;12.67;58.13;101639.52;1823722;78;25629;-60
2024/04/12 02:10:33;;;;;;;9.28;4.87;;;;;;;12.74;57.94;101648.67;1822787;78;27215;-60
2024/04/12 02:12:59;;;;;;;8.78;4.95;;;;;;;12.78;57.74;101649.13;1822802;78;25989;-61
2024/04/12 02:15:27;;;;;;;10.55;4.60;;;;;;;12.83;57.55;101645.55;1823673;78;25463;-61
2024/04/12 02:18:02;;;;;;;11.28;4.72;;;;;;;12.87;57.38;101651.48;1823603;78;25546;-61
2024/04/12 02:20:34;;;;;;;11.50;4.92;;;;;;;12.92;57.34;101649.22;1823583;78;25561;-60
2024/04/12 02:23:07;;;;;;;9.63;4.85;;;;;;;12.96;57.08;101647.56;1823691;78;27505;-61
2024/04/12 02:25:41;;;;;;;6.97;4.65;;;;;;;12.99;56.90;101649.70;1823540;78;25511;-61
2024/04/12 02:28:11;;;;;;;8.55;4.70;;;;;;;13.02;56.70;101649.65;1823621;78;25515;-61
2024/04/12 02:31:01;;;;;;;64.77;59.98;;;;;;;13.03;56.54;101647.20;1803144;78;26125;-60
2024/04/12 02:33:31;;;;;;;14.38;6.50;;;;;;;13.07;56.71;101646.86;1822100;78;25371;-61
2024/04/12 02:36:12;;;;;;;10.00;4.40;;;;;;;13.11;56.72;101648.44;1823662;78;27476;-60
2024/04/12 02:38:43;;;;;;;11.73;5.00;;;;;;;13.16;56.76;101649.72;1823568;78;25784;-60
2024/04/12 02:41:13;;;;;;;7.87;4.08;;;;;;;13.19;56.39;101643.71;1823656;78;25554;-60
2024/04/12 02:43:45;;;;;;;10.50;4.85;;;;;;;13.20;56.37;101650.77;1823506;78;26360;-60
2024/04/12 02:46:13;;;;;;;14.70;4.42;;;;;;;13.20;56.37;101646.14;1823714;78;25451;-61
2024/04/12 02:48:47;;;;;;;6.15;4.12;;;;;;;13.22;56.19;101654.80;1823795;78;27008;-60
2024/04/12 02:51:21;;;;;;;8.48;4.45;;;;;;;13.23;56.19;101653.70;1823693;78;25765;-60
2024/04/12 02:53:50;;;;;;;9.55;4.67;;;;;;;13.22;56.17;101646.64;1823386;78;25688;-60
2024/04/12 02:56:24;;;;;;;9.28;4.30;;;;;;;13.21;55.93;101645.05;1823783;78;25547;-59
2024/04/12 02:58:52;;;;;;;5.70;4.00;;;;;;;13.20;55.90;101643.98;1823729;78;25621;-60
2024/04/12 03:01:24;;;;;;;7.03;4.25;;;;;;;13.16;55.65;101651.08;1823918;78;27472;-59
2024/04/12 03:03:55;;;;;;;10.08;4.85;;;;;;;13.12;55.66;101656.86;1823737;78;25549;-59
2024/04/12 03:06:28;;;;;;;8.75;4.33;;;;;;;13.07;55.85;101651.73;1828863;77;25560;-60
2024/04/12 03:08:59;;;;;;;10.98;4.35;;;;;;;13.02;55.96;101647.73;1813843;78;26140;-60
2024/04/12 03:11:37;;;;;;;12.20;6.87;;;;;;;12.97;55.86;101646.44;1829895;78;25386;-60
2024/04/12 03:14:15;;;;;;;6.00;3.98;;;;;;;12.93;56.06;101653.56;1830172;77;27837;-59
2024/04/12 03:16:46;;;;;;;6.22;4.58;;;;;;;12.88;56.24;101649.56;1829819;78;25490;-60
2024/04/12 03:19:18;;;;;;;;;;;;;;;12.85;56.21;101650.14;1832608;78;25507;-60
2024/04/12 03:21:50;;;;;;;5.67;4.20;;;;;;;12.82;56.59;101649.35;1829880;78;26614;-60
2024/04/12 03:24:18;;;;;;;12.20;4.97;;;;;;;12.80;56.63;101644.22;1829707;77;25363;-58
2024/04/12 03:26:47;;;;;;;10.80;4.40;;;;;;;12.80;56.77;101640.70;1829847;77;27382;-59
2024/04/12 03:29:16;;;;;;;5.83;3.92;;;;;;;12.79;56.82;101647.25;1829960;77;25352;-59
2024/04/12 03:31:46;;;;;;;8.83;4.08;;;;;;;12.76;57.08;101647.27;1829971;78;25437;-60
2024/04/12 03:34:14;;;;;;;7.15;4.22;;;;;;;12.71;57.08;101650.84;1830046;78;26027;-59
2024/04/12 03:42:04;;;;;;;11.35;5.10;;;;;;;12.68;57.27;101647.90;1829763;78;25285;-60
2024/04/12 03:44:31;;;;;;;12.03;4.85;;;;;;;12.68;57.32;101642.47;1828863;77;25557;-61
2024/04/12 03:47:08;;;;;;;6.95;4.67;;;;;;;12.66;57.43;101649.55;1829845;77;25651;-60
2024/04/12 03:49:40;;;;;;;8.13;4.33;;;;;;;12.66;57.27;101644.11;1829950;77;25348;-61
2024/04/12 03:52:12;;;;;;;8.13;4.17;;;;;;;12.63;57.29;101640.64;1829916;78;27358;-61
2024/04/12 03:54:43;;;;;;;11.53;4.67;;;;;;;12.63;57.39;101646.08;1829785;77;25860;-62
2024/04/12 03:57:12;;;;;;;13.18;4.78;;;;;;;12.62;57.63;101649.08;1829938;77;25482;-62
2024/04/12 03:59:44;;;;;;;9.78;4.67;;;;;;;12.60;57.72;101651.25;1829939;78;25537;-62
2024/04/12 04:02:13;;;;;;;8.15;4.78;;;;;;;12.59;57.92;101655.88;1829906;77;25434;-62
2024/04/12 04:04:44;;;;;;;8.45;4.78;;;;;;;12.58;57.88;101654.28;1829981;78;27524;-62
2024/04/12 04:07:15;;;;;;;11.12;4.40;;;;;;;12.59;57.97;101652.36;1823742;77;25502;-62
2024/04/12 04:09:46;;;;;;;6.75;3.98;;;;;;;12.57;57.95;101647.78;1823824;78;25316;-61
2024/04/12 04:12:15;;;;;;;8.90;4.17;;;;;;;12.54;58.08;101645.08;1823771;78;25523;-61
2024/04/12 04:14:49;;;;;;;10.35;4.37;;;;;;;12.51;57.89;101638.87;1823901;78;25482;-61
2024/04/12 04:17:18;;;;;;;6.78;4.47;;;;;;;12.49;58.13;101638.35;1823871;78;27383;-61
2024/04/12 04:19:51;;;;;;;11.10;4.53;;;;;;;12.47;58.49;101641.35;1823676;78;25445;-61
2024/04/12 04:25:07;;;;;;;8.75;4.30;;;;;;;12.42;58.74;101635.19;1823683;78;26058;-60
2024/04/12 04:27:38;;;;;;;8.08;4.80;;;;;;;12.37;58.64;101631.97;1823835;78;25513;-60
2024/04/12 04:30:11;;;;;;;11.55;4.90;;;;;;;12.32;59.09;101625.25;1823252;78;28046;-60
2024/04/12 04:32:38;;;;;;;7.83;5.25;;;;;;;12.23;58.94;101626.42;1823679;78;25796;-60
2024/04/12 04:35:09;;;;;;;8.43;4.60;;;;;;;12.21;59.09;101626.44;1823734;78;25489;-61
2024/04/12 04:37:40;;;;;;;6.78;4.37;;;;;;;12.15;59.49;101632.47;1823722;78;25425;-61
2024/04/12 04:40:17;;;;;;;9.75;3.83;;;;;;;12.09;59.47;101633.63;1823683;78;25490;-61
2024/04/12 04:42:49;;;;;;;9.33;4.22;;;;;;;12.02;59.76;101639.39;1823787;78;27893;-60
2024/04/12 04:45:21;;;;;;;7.72;3.90;;;;;;;11.95;60.17;101643.79;1823621;78;25572;-62
2024/04/12 04:47:51;;;;;;;8.53;4.40;;;;;;;11.90;60.33;101642.45;1823830;78;25473;-61
2024/04/12 04:50:19;;;;;;;10.32;4.72;;;;;;;11.89;60.72;101646.24;1823694;78;25541;-61
2024/04/12 04:52:51;;;;;;;13.80;4.65;;;;;;;11.88;61.19;101643.81;1823909;78;25463;-62
2024/04/12 04:55:18;;;;;;;12.80;4.67;;;;;;;11.85;60.96;101643.02;1823696;78;27400;-61
2024/04/12 04:57:47;;;;;;;7.03;4.65;;;;;;;11.84;61.55;101643.58;1823642;78;26161;-62
2024/04/12 05:00:24;;;;;;;10.78;4.40;;;;;;;11.82;61.54;101639.55;1823967;78;25531;-61
2024/04/12 05:02:53;;;;;;;7.30;4.60;;;;;;;11.82;62.04;101649.83;1823721;78;25475;-62
2024/04/12 05:05:26;;;;;;;8.85;4.42;;;;;;;11.81;61.99;101644.69;1823783;78;25323;-61
2024/04/12 05:08:02;;;;;;;12.35;4.95;;;;;;;11.82;62.35;101649.03;1823695;78;27933;-59
2024/04/12 05:10:33;;;;;;;11.43;4.83;;;;;;;11.85;62.88;101653.34;1823526;78;25489;-61
2024/04/12 05:13:03;;;;;;;9.08;4.67;;;;;;;11.88;62.95;101649.23;1823301;78;25324;-62
2024/04/12 05:18:08;;;;;;;10.18;4.47;;;;;;;12.01;63.65;101662.72;1823921;78;25516;-62
2024/04/12 05:20:41;;;;;;;13.78;4.65;;;;;;;12.07;63.44;101665.11;1823858;78;27356;-62
2024/04/12 05:23:14;;;;;;;9.75;4.50;;;;;;;12.15;63.72;101656.33;1823177;77;25460;-61
2024/04/12 05:25:43;;;;;;;12.95;4.12;;;;;;;12.24;63.77;101661.97;1823724;78;25484;-62
2024/04/12 05:28:12;;;;;;;10.40;4.10;;;;;;;12.32;63.62;101655.89;1823797;78;25460;-62
2024/04/12 05:30:42;;;;;;;9.63;4.22;;;;;;;12.41;63.70;101664.23;1823858;78;25547;-61
2024/04/12 05:33:11;;;;;;;7.65;4.33;;;;;;;12.50;63.75;101664.41;1823687;78;27320;-62
2024/04/12 05:35:40;;;;;;;8.83;4.70;;;;;;;12.57;63.75;101664.86;1823756;78;28749;-60
2024/04/12 05:38:08;;;;;;;9.93;5.62;;;;;;;12.69;63.62;101670.69;1823840;78;25378;-61
2024/04/12 05:40:40;;;;;;;13.65;5.50;;;;;;;12.77;63.31;101667.06;1823663;78;25545;-61
2024/04/12 05:43:13;;;;;;;11.93;4.58;;;;;;;12.86;63.46;101667.50;1823679;78;25366;-61
2024/04/12 05:45:55;;;;;;;14.98;5.28;;;;;;;12.97;63.29;101663.30;1823667;78;27335;-61
2024/04/12 05:48:24;;;;;;;14.18;5.10;;;;;;;13.06;62.99;101661.56;1823647;78;25482;-60
2024/04/12 05:50:54;;;;;;;22.80;6.03;;;;;;;13.18;62.93;101663.84;1823980;78;25494;-60
2024/04/12 05:53:33;;;;;;;9.33;5.30;;;;;;;13.28;62.83;101663.70;1823649;78;25496;-61
2024/04/12 05:58:44;;;;;;;8.73;5.08;;;;;;;13.53;62.26;101665.80;1823714;78;28046;-60
2024/04/12 06:01:11;;;;;;;19.12;10.08;;;;;;;13.68;61.97;101670.20;1823599;78;25483;-61
2024/04/12 06:04:12;;;;;;;15.90;6.70;;;;;;;13.83;61.53;101665.31;1823693;78;25411;-60
2024/04/12 06:06:15;;;;;;;14.35;5.33;;;;;;;13.98;61.28;101660.17;1808011;78;26376;-61
2024/04/12 06:08:45;;;;;;;19.80;5.53;;;;;;;14.14;61.19;101662.06;1823995;78;25448;-61
2024/04/12 06:11:13;;;;;;;15.58;6.20;;;;;;;14.36;60.61;101662.75;1823727;78;27351;-61
2024/04/12 06:13:40;;;;;;;11.25;5.22;;;;;;;14.51;60.49;101654.05;1823626;78;25460;-63
2024/04/12 06:16:08;;;;;;;11.43;5.47;;;;;;;14.73;60.00;101657.46;1823683;78;25347;-62
2024/04/12 06:18:36;;;;;;;11.28;6.10;;;;;;;14.88;59.17;101660.40;1823654;78;25515;-60
2024/04/12 06:21:04;;;;;;;17.90;6.70;;;;;;;15.06;58.85;101659.47;1824009;78;25509;-61
2024/04/12 06:23:33;;;;;;;13.55;5.92;;;;;;;15.18;58.30;101659.50;1823688;78;27898;-63
2024/04/12 06:26:00;;;;;;;18.13;6.67;;;;;;;15.39;58.17;101662.55;1823914;78;25363;-61
2024/04/12 06:28:30;;;;;;;9.40;5.72;;;;;;;15.57;58.23;101658.06;1823899;78;25479;-61
2024/04/12 06:30:59;;;;;;;10.50;4.85;;;;;;;15.82;57.10;101655.30;1823872;78;26132;-62
2024/04/12 06:33:25;;;;;;;9.45;4.78;;;;;;;16.05;56.43;101653.34;1823868;78;25443;-61
2024/04/12 06:35:53;;;;;;;15.88;6.17;;;;;;;16.24;56.21;101639.45;1823854;78;27340;-61
2024/04/12 06:38:22;;;;;;;7.62;4.50;;;;;;;16.50;55.84;101642.30;1823782;78;25490;-61
2024/04/12 06:40:53;;;;;;;;;;;;;;;16.74;53.98;101650.66;1826567;77;25506;-62
2024/04/12 06:43:20;;;;;;;13.10;5.20;;;;;;;16.89;53.66;101651.59;1823772;77;27746;-62
2024/04/12 06:46:13;;;;;;;73.37;68.10;;;;;;;17.03;53.60;101635.05;1823854;78;25362;-62
2024/04/12 06:48:32;;;;;;;38.48;35.35;;;;;;;17.28;53.05;101633.47;1819350;78;27858;-62
2024/04/12 06:50:59;;;;;;;9.60;3.92;;;;;;;17.65;52.42;101639.94;1823720;78;25486;-60
2024/04/12 06:53:27;;;;;;;12.25;5.17;;;;;;;17.94;50.44;101640.63;1823855;78;25524;-62
2024/04/12 06:55:58;;;;;;;11.88;4.50;;;;;;;18.15;50.97;101646.22;1823406;77;25885;-61
2024/04/12 06:58:26;;;;;;;10.65;4.17;;;;;;;18.34;50.39;101637.60;1822775;78;25552;-62
2024/04/12 07:00:57;;;;;;;11.03;5.05;;;;;;;18.45;49.99;101642.93;1823565;78;27807;-63
2024/04/12 07:03:25;;;;;;;9.65;4.80;;;;;;;18.50;48.26;101638.41;1823757;78;25345;-61
2024/04/12 07:05:56;;;;;;;11.95;4.87;;;;;;;18.41;49.11;101633.78;1823700;78;25500;-61
2024/04/12 07:08:26;;;;;;;9.70;4.28;;;;;;;18.47;48.95;101641.23;1829922;78;25518;-61
2024/04/12 07:10:53;;;;;;;;;;;;;;;18.54;48.85;101637.44;1832527;77;25453;-62
2024/04/12 07:13:26;;;;;;;6.75;3.45;;;;;;;18.67;48.74;101641.05;1829037;77;26937;-62
2024/04/12 07:15:55;;;;;;;8.98;4.10;;;;;;;18.83;48.93;101645.41;1828089;78;25686;-61
2024/04/12 07:18:23;;;;;;;9.83;6.45;;;;;;;18.99;48.53;101651.13;1829556;77;25374;-62
2024/04/12 07:20:52;;;;;;;12.75;4.72;;;;;;;19.08;48.36;101644.20;1830011;78;25464;-61
2024/04/12 07:23:19;;;;;;;14.07;4.58;;;;;;;19.21;48.08;101650.00;1830057;78;25469;-61
2024/04/12 07:25:47;;;;;;;8.10;3.52;;;;;;;19.34;48.05;101648.11;1829918;77;27381;-61
2024/04/12 07:28:18;;;;;;;11.80;4.70;;;;;;;19.46;47.60;101651.47;1829829;78;25728;-62
2024/04/12 07:30:45;;;;;;;8.13;4.08;;;;;;;19.50;47.30;101653.22;1829929;77;25441;-61
2024/04/12 07:33:14;;;;;;;10.58;4.87;;;;;;;19.51;47.00;101658.13;1829901;77;25802;-62
2024/04/12 07:35:48;;;;;;;11.83;4.00;;;;;;;19.48;46.50;101657.42;1830065;78;28928;-61
2024/04/12 07:38:17;;;;;;;10.03;4.58;;;;;;;19.34;46.46;101659.08;1828496;78;27374;-62
2024/04/12 07:40:46;;;;;;;8.40;3.80;;;;;;;19.34;47.09;101658.53;1828492;78;25990;-61
2024/04/12 07:43:13;;;;;;;7.40;3.58;;;;;;;19.43;47.04;101661.75;1828394;78;25615;-62
2024/04/12 07:45:41;;;;;;;9.30;3.67;;;;;;;19.41;46.42;101663.48;1828342;77;25637;-60
2024/04/12 07:48:11;;;;;;;12.13;4.50;;;;;;;19.28;46.71;101663.18;1828385;78;25557;-61
2024/04/12 07:50:41;;;;;;;11.75;4.22;;;;;;;19.26;46.86;101662.14;1828301;78;27362;-62
2024/04/12 07:55:45;;;;;;;7.12;3.05;;;;;;;19.37;46.95;101667.44;1829936;78;25105;-61
2024/04/12 07:58:12;;;;;;;15.95;3.92;;;;;;;19.38;46.58;101667.69;1829861;78;25515;-61
2024/04/12 08:00:47;;;;;;;7.92;3.65;;;;;;;19.28;46.84;101665.92;1829927;78;25344;-61
2024/04/12 08:03:16;;;;;;;11.10;3.58;;;;;;;19.16;46.22;101678.42;1829929;77;26784;-62
2024/04/12 08:06:03;;;;;;;;;;;;;;;18.93;46.17;101671.06;1832465;77;25824;-63
2024/04/12 08:08:43;;;;;;;40.38;24.60;;;;;;;18.67;46.71;101673.36;1794359;80;25542;-73
2024/04/12 08:13:50;;;;;;;56.90;43.55;;;;;;;18.36;47.32;101671.52;1794013;80;25543;-77
2024/04/12 08:16:23;;;;;;;15.08;9.00;;;;;;;18.21;47.83;101664.63;1794113;80;27370;-72
2024/04/12 08:18:45;;;;;;;46.37;32.42;;;;;;;18.21;48.20;101671.48;1792400;80;25763;-72
2024/04/12 08:21:13;;;;;;;14.58;6.97;;;;;;;18.10;48.33;101668.30;1793328;80;25227;-72
2024/04/12 08:23:43;;;;;;;13.08;11.70;;;;;;;18.06;48.73;101665.96;1793042;80;25618;-68
2024/04/12 08:26:16;;;;;;;7.67;3.15;;;;;;;18.05;48.77;101671.22;1792939;80;25912;-68
2024/04/12 08:28:43;;;;;;;6.67;3.22;;;;;;;17.97;48.57;101663.25;1793300;80;27303;-67
2024/04/12 08:31:11;;;;;;;6.25;2.90;;;;;;;17.95;48.99;101663.35;1794363;79;25518;-67
2024/04/12 08:33:45;;;;;;;7.05;2.55;;;;;;;17.93;49.23;101659.57;1794422;80;25531;-67
2024/04/12 08:36:14;;;;;;;;;;;;;;;17.89;49.31;101667.63;1795138;80;26634;-63
2024/04/12 08:38:53;;;;;;;4.10;2.30;;;;;;;17.84;49.23;101664.21;1793691;80;31001;-60
2024/04/12 08:41:13;;;;;;;6.42;2.00;;;;;;;17.79;49.65;101666.55;1791083;80;27472;-62
2024/04/12 08:43:46;;;;;;;2.47;1.70;;;;;;;17.79;49.85;101665.75;1794005;80;26156;-62
2024/04/12 08:46:20;;;;;;;4.53;2.15;;;;;;;17.73;49.77;101662.39;1794360;80;25538;-61
2024/04/12 08:48:46;;;;;;;3.95;1.85;;;;;;;17.67;49.76;101665.04;1793606;80;26143;-60
2024/04/12 08:51:21;;;;;;;;;;;;;;;17.60;49.95;101668.27;1797105;79;25376;-62
2024/04/12 08:53:45;;;;;;;8.55;2.08;;;;;;;;;;1793567;80;27440;-61
2024/04/12 08:56:17;;;;;;;5.50;2.17;;;;;;;;;;1794306;80;25387;-61
2024/04/12 08:58:42;;;;;;;4.40;1.92;;;;;;;;;;1793794;80;25433;-72
2024/04/12 09:01:09;;;;;;;28.17;17.07;;;;;;;;;;1794832;80;25465;-71
2024/04/12 09:03:43;;;;;;;10.88;7.87;;;;;;;;;;1794812;80;25285;-74
2024/04/12 09:06:14;;;;;;;4.40;2.20;;;;;;;;;;1794389;80;28104;-69
2024/04/12 09:08:40;;;;;;;7.22;2.05;;;;;;;;;;1821365;77;25465;-69
2024/04/12 09:11:07;;;;;;;4.83;2.42;;;;;;;;;;1823908;78;29614;-69
2024/04/12 09:13:36;;;;;;;6.95;1.87;;;;;;;;;;1823742;78;25534;-69
2024/04/12 09:16:06;;;;;;;3.52;1.90;;;;;;;;;;1823768;78;25513;-68
2024/04/12 09:18:44;;;;;;;3.90;1.92;;;;;;;;;;1823724;78;27585;-68
2024/04/12 09:21:01;;;;;;;2.92;2.00;;;;;;;;;;1822296;78;25431;-68
2024/04/12 09:23:36;;;;;;;2.72;1.70;;;;;;;;;;1823745;78;25462;-67
2024/04/12 09:28:44;;;;;;;5.83;2.10;;;;;;;;;;1743271;82;25319;-68
2024/04/12 09:34:22;;;;;;;3.10;2.12;;;;;;;;;;1743261;81;25371;-70
2024/04/12 09:36:38;;;;;;;4.40;2.25;;;;;;;;;;1743332;82;25529;-68
2024/04/12 09:38:59;;;;;;;3.08;2.35;;;;;;;;;;1743095;82;25672;-69
2024/04/12 09:41:31;;;;;;;70.10;65.22;;;;;;;;;;1743761;82;25102;-70
2024/04/12 09:44:00;;;;;;;10.65;8.75;;;;;;;;;;1743636;82;27654;-70
2024/04/12 09:46:47;;;;;;;3.95;2.08;;;;;;;;;;1743597;82;25522;-70
2024/04/12 10:39:15;;;;;;;67.37;63.58;;;;;;;;;;1750419;82;27375;-64
2024/04/12 10:41:45;;;;;;;66.62;62.58;;;;;;;;;;1725344;82;26478;-63
2024/04/12 10:44:13;;;;;;;;;;;;;;;;;;1728375;82;25374;-63
2024/04/12 10:46:41;;;;;;;66.55;62.78;;;;;;;;;;1750478;82;25523;-63
2024/04/12 10:49:09;;;;;;;66.22;62.27;;;;;;;;;;1750551;82;25525;-63
2024/04/12 10:51:39;;;;;;;66.30;62.13;;;;;;;;;;1750496;82;28258;-63
2024/04/12 10:54:10;;;;;;;28.52;26.37;;;;;;;;;;1750294;82;25579;-63
2024/04/12 10:56:44;;;;;;;4.28;3.37;;;;;;;;;;1750263;82;25523;-64
2024/04/12 10:59:26;;;;;;;4.70;3.40;;;;;;;;;;1750356;82;25571;-63
2024/04/12 11:01:44;;;;;;;6.80;3.47;;;;;;;;;;1747865;82;25406;-62
2024/04/12 11:04:12;;;;;;;5.03;3.40;;;;;;;;;;1750155;82;27462;-64
2024/04/12 11:06:40;;;;;;;8.73;3.00;;;;;;;;;;1750261;82;25324;-64
2024/04/12 11:09:14;;;;;;;6.05;2.83;;;;;;;;;;1750470;81;25516;-63
2024/04/12 11:11:38;;;;;;;5.15;2.27;;;;;;;;;;1775082;80;25560;-63
2024/04/12 11:14:15;;;;;;;2.55;2.30;;;;;;;;;;1770438;81;25544;-63
2024/04/12 11:31:14;;;;;;;4.53;2.15;;;;;;;;;;1770601;81;27043;-61
2024/04/12 11:33:39;;;;;;;3.25;1.57;;;;;;;;;;1767413;81;25557;-62
2024/04/12 11:36:10;;;;;;;2.62;1.52;;;;;;;;;;1770274;81;25543;-63
2024/04/12 11:38:47;;;;;;;4.78;1.82;;;;;;;;;;1769644;81;25837;-63
2024/04/12 11:41:08;;;;;;;1.77;1.62;;;;;;;;;;1767468;81;25473;-64
2024/04/12 11:43:35;;;;;;;3.50;1.57;;;;;;;;;;1770536;81;27943;-64
2024/04/12 11:46:02;;;;;;;6.20;1.32;;;;;;;;;;1770293;81;25505;-63
2024/04/12 11:48:31;;;;;;;2.40;1.47;;;;;;;;;;1770434;81;25468;-63
2024/04/12 11:50:59;;;;;;;6.72;5.50;;;;;;;;;;1770536;81;25574;-62
2024/04/12 11:53:27;;;;;;;4.58;2.12;;;;;;;;;;1770451;81;25468;-63
2024/04/12 11:55:55;;;;;;;3.00;1.85;;;;;;;;;;1770413;81;27443;-63
2024/04/12 11:58:22;;;;;;;4.25;1.98;;;;;;;;;;1770336;81;25367;-63
2024/04/12 12:00:52;;;;;;;3.27;1.62;;;;;;;;;;1770432;81;25498;-73
2024/04/12 12:03:20;;;;;;;6.62;5.30;;;;;;;;;;1770451;81;25500;-71
2024/04/12 12:05:52;;;;;;;2.62;2.08;;;;;;;;;;1770487;81;25504;-71
2024/04/12 12:08:25;;;;;;;2.40;1.60;;;;;;;;;;1769880;81;27417;-72
2024/04/12 12:10:46;;;;;;;4.22;1.90;;;;;;;;;;1769236;81;25530;-72
2024/04/12 12:13:14;;;;;;;7.62;4.75;;;;;;;;;;1770463;81;25363;-72
2024/04/12 12:15:43;;;;;;;14.73;13.58;;;;;;;;;;1770403;81;25535;-72
2024/04/12 12:18:09;;;;;;;2.22;1.70;;;;;;;;;;1770571;81;25496;-61
2024/04/12 12:20:36;;;;;;;2.80;1.35;;;;;;;;;;1770419;81;27422;-60
2024/04/12 12:23:03;;;;;;;1.67;1.30;;;;;;;;;;1770317;81;25501;-61
2024/04/12 12:25:30;;;;;;;65.87;62.13;;;;;;;;;;1770399;81;25354;-60
2024/04/12 12:27:58;;;;;;;66.70;62.70;;;;;;;;;;1770350;81;26005;-61
2024/04/12 12:30:25;;;;;;;66.07;62.43;;;;;;;;;;1770415;81;25523;-61
2024/04/12 12:32:52;;;;;;;69.00;65.10;;;;;;;;;;1770363;81;27349;-60
2024/04/12 12:35:22;;;;;;;68.47;64.55;;;;;;;;;;1770320;81;25310;-60
2024/04/12 12:37:49;;;;;;;65.45;61.53;;;;;;;;;;1770167;81;25544;-60
2024/04/12 12:40:21;;;;;;;67.25;63.52;;;;;;;;;;1770289;81;25569;-61
2024/04/12 12:42:51;;;;;;;66.33;62.43;;;;;;;;;;1770398;81;25054;-59
2024/04/12 12:45:19;;;;;;;66.25;62.45;;;;;;;;;;1770299;81;27915;-60
2024/04/12 12:47:47;;;;;;;67.87;63.75;;;;;;;;;;1770398;81;25391;-59
2024/04/12 12:50:19;;;;;;;64.95;61.37;;;;;;;;;;1770348;81;25404;-58
2024/04/12 12:52:51;;;;;;;67.27;63.28;;;;;;;;;;1770370;81;26166;-59
2024/04/12 12:55:22;;;;;;;68.12;64.32;;;;;;;;;;1770419;81;25099;-59
2024/04/12 12:58:09;;;;;;;67.17;63.38;;;;;;;;;;1770384;81;27347;-59
2024/04/12 13:00:24;;;;;;;64.47;60.88;;;;;;;;;;1767231;81;25517;-59
2024/04/12 13:02:51;;;;;;;64.90;61.20;;;;;;;;;;1770610;81;25516;-58
2024/04/12 13:05:19;;;;;;;65.03;61.33;;;;;;;;;;1770313;81;25474;-60
2024/04/12 13:07:49;;;;;;;67.27;63.33;;;;;;;;;;1770190;81;25398;-59
2024/04/12 13:10:19;;;;;;;67.87;63.98;;;;;;;;;;1770352;81;27680;-59
2024/04/12 13:12:52;;;;;;;66.07;61.60;;;;;;;;;;1770247;81;25643;-60
2024/04/12 13:15:21;;;;;;;66.37;62.58;;;;;;;;;;1768692;81;25461;-59
2024/04/12 13:17:50;;;;;;;72.00;67.27;;;;;;;;;;1770515;81;25583;-73
2024/04/12 13:20:20;;;;;;;69.42;65.00;;;;;;;;;;1770703;81;25506;-75
2024/04/12 13:22:48;;;;;;;65.37;61.68;;;;;;;;;;1770470;81;27420;-74
2024/04/12 13:25:16;;;;;;;70.90;66.67;;;;;;;;;;1770612;81;25437;-74
2024/04/12 13:27:47;;;;;;;68.30;64.25;;;;;;;;;;1770455;81;25446;-72
2024/04/12 13:30:16;;;;;;;73.57;68.42;;;;;;;;;;1770401;81;25517;-72
2024/04/12 13:32:48;;;;;;;67.65;63.60;;;;;;;;;;1769436;81;25191;-72
2024/04/12 13:35:13;;;;;;;65.55;61.85;;;;;;;;;;1768784;81;27554;-73
2024/04/12 13:37:43;;;;;;;63.73;59.90;;;;;;;;;;1770328;81;25833;-73
2024/04/12 13:40:17;;;;;;;66.02;61.83;;;;;;;;;;1770323;81;25494;-57
2024/04/12 13:42:40;;;;;;;65.90;62.00;;;;;;;;;;1768989;81;25504;-60
2024/04/12 13:50:54;;;;;;;64.00;60.23;;;;;;;;;;1770282;81;25724;-60
2024/04/12 13:53:17;;;;;;;62.73;59.13;;;;;;;;;;1768569;81;25519;-59
2024/04/12 13:55:46;;;;;;;23.55;21.75;;;;;;;;;;1769941;81;25504;-60
2024/04/12 13:58:14;;;;;;;13.28;12.33;;;;;;;;;;1770141;81;25555;-59
2024/04/12 14:00:48;;;;;;;5.17;1.47;;;;;;;;;;1770303;81;27423;-59
2024/04/12 14:03:21;;;;;;;65.52;61.60;;;;;;;;;;1768807;81;25127;-60